ADDS TAF Data INFO
IDs: Format: Raw Decoded Include METARs

Data at: 1933 UTC 23 Jan 2018

KCKB 231853Z 25015G29KT 10SM BKN050 08/M01 A2975 RMK AO2 PK WND 24029/1849 RAB14E30 SLP069 P0000 T00781011

KCKB 231739Z 2318/2418 25015G28KT P6SM BKN045
  FM240000 25015G29KT P6SM BKN027
  FM240300 26014G23KT 6SM -SHRASN OVC017
  FM241200 27011KT P6SM -SHSN OVC015